sensor_id;sensor_type;location;lat;lon;timestamp;temperature;humidity
27534;DHT22;14973;51.460;7.008;2023-08-30T00:02:05;15.00;99.90
27534;DHT22;14973;51.460;7.008;2023-08-30T00:04:30;15.00;99.90
27534;DHT22;14973;51.460;7.008;2023-08-30T00:06:56;14.90;99.90
27534;DHT22;14973;51.460;7.008;2023-08-30T00:09:21;14.90;99.90
27534;DHT22;14973;51.460;7.008;2023-08-30T00:11:47;14.80;99.90
27534;DHT22;14973;51.460;7.008;2023-08-30T00:14:12;14.80;99.90
27534;DHT22;14973;51.460;7.008;2023-08-30T00:16:38;14.80;99.90
27534;DHT22;14973;51.460;7.008;2023-08-30T00:19:04;14.70;99.90
27534;DHT22;14973;51.460;7.008;2023-08-30T00:21:30;14.70;99.90
27534;DHT22;14973;51.460;7.008;2023-08-30T00:23:55;14.70;99.90
27534;DHT22;14973;51.460;7.008;2023-08-30T00:26:21;14.70;99.90
27534;DHT22;14973;51.460;7.008;2023-08-30T00:28:47;14.70;99.90
27534;DHT22;14973;51.460;7.008;2023-08-30T00:31:12;14.70;99.90
27534;DHT22;14973;51.460;7.008;2023-08-30T00:33:37;14.70;99.90
27534;DHT22;14973;51.460;7.008;2023-08-30T00:36:04;14.70;99.90
27534;DHT22;14973;51.460;7.008;2023-08-30T00:38:30;14.70;99.90
27534;DHT22;14973;51.460;7.008;2023-08-30T00:40:55;14.70;99.90
27534;DHT22;14973;51.460;7.008;2023-08-30T00:43:21;14.60;99.90
27534;DHT22;14973;51.460;7.008;2023-08-30T00:45:47;14.60;99.90
27534;DHT22;14973;51.460;7.008;2023-08-30T00:48:14;14.50;99.90
27534;DHT22;14973;51.460;7.008;2023-08-30T00:50:42;14.60;99.90
27534;DHT22;14973;51.460;7.008;2023-08-30T00:53:08;14.50;99.90
27534;DHT22;14973;51.460;7.008;2023-08-30T00:55:37;14.60;99.90
27534;DHT22;14973;51.460;7.008;2023-08-30T00:58:03;14.50;99.90
27534;DHT22;14973;51.460;7.008;2023-08-30T01:00:33;14.60;99.90
27534;DHT22;14973;51.460;7.008;2023-08-30T01:02:59;14.50;99.90
27534;DHT22;14973;51.460;7.008;2023-08-30T01:05:24;14.50;99.90
27534;DHT22;14973;51.460;7.008;2023-08-30T01:07:51;14.40;99.90
27534;DHT22;14973;51.460;7.008;2023-08-30T01:10:17;14.40;99.90
27534;DHT22;14973;51.460;7.008;2023-08-30T01:12:47;14.30;99.90
27534;DHT22;14973;51.460;7.008;2023-08-30T01:15:19;14.30;99.90
27534;DHT22;14973;51.460;7.008;2023-08-30T01:17:47;14.30;99.90
27534;DHT22;14973;51.460;7.008;2023-08-30T01:20:14;14.30;99.90
27534;DHT22;14973;51.460;7.008;2023-08-30T01:23:13;14.40;99.90
27534;DHT22;14973;51.460;7.008;2023-08-30T01:25:45;14.40;99.90
27534;DHT22;14973;51.460;7.008;2023-08-30T01:28:11;14.40;99.90
27534;DHT22;14973;51.460;7.008;2023-08-30T01:30:41;14.40;99.90
27534;DHT22;14973;51.460;7.008;2023-08-30T01:33:08;14.30;99.90
27534;DHT22;14973;51.460;7.008;2023-08-30T01:35:35;14.30;99.90
27534;DHT22;14973;51.460;7.008;2023-08-30T01:38:03;14.20;99.90
27534;DHT22;14973;51.460;7.008;2023-08-30T01:40:36;14.30;99.90
27534;DHT22;14973;51.460;7.008;2023-08-30T01:43:04;14.30;99.90
27534;DHT22;14973;51.460;7.008;2023-08-30T01:45:33;14.20;99.90
27534;DHT22;14973;51.460;7.008;2023-08-30T01:47:59;14.20;99.90
27534;DHT22;14973;51.460;7.008;2023-08-30T01:50:26;14.20;99.90
27534;DHT22;14973;51.460;7.008;2023-08-30T01:52:52;14.10;99.90
27534;DHT22;14973;51.460;7.008;2023-08-30T01:55:18;14.10;99.90
27534;DHT22;14973;51.460;7.008;2023-08-30T01:57:45;14.10;99.90
27534;DHT22;14973;51.460;7.008;2023-08-30T02:00:11;14.10;99.90
27534;DHT22;14973;51.460;7.008;2023-08-30T02:02:37;14.00;99.90
27534;DHT22;14973;51.460;7.008;2023-08-30T02:05:03;14.10;99.90
27534;DHT22;14973;51.460;7.008;2023-08-30T02:07:37;14.10;99.90
27534;DHT22;14973;51.460;7.008;2023-08-30T02:10:06;14.00;99.90
27534;DHT22;14973;51.460;7.008;2023-08-30T02:12:47;14.10;99.90
27534;DHT22;14973;51.460;7.008;2023-08-30T02:15:13;14.00;99.90
27534;DHT22;14973;51.460;7.008;2023-08-30T02:17:39;14.00;99.90
27534;DHT22;14973;51.460;7.008;2023-08-30T02:20:07;13.90;99.90
27534;DHT22;14973;51.460;7.008;2023-08-30T02:22:33;13.90;99.90
27534;DHT22;14973;51.460;7.008;2023-08-30T02:24:59;14.00;99.90
27534;DHT22;14973;51.460;7.008;2023-08-30T02:27:25;14.00;99.90
27534;DHT22;14973;51.460;7.008;2023-08-30T02:29:50;14.00;99.90
27534;DHT22;14973;51.460;7.008;2023-08-30T02:32:16;13.90;99.90
27534;DHT22;14973;51.460;7.008;2023-08-30T02:34:49;13.90;99.90
27534;DHT22;14973;51.460;7.008;2023-08-30T02:37:15;13.90;99.90
27534;DHT22;14973;51.460;7.008;2023-08-30T02:39:40;13.90;99.90
27534;DHT22;14973;51.460;7.008;2023-08-30T02:42:06;13.80;99.90
27534;DHT22;14973;51.460;7.008;2023-08-30T02:44:31;13.80;99.90
27534;DHT22;14973;51.460;7.008;2023-08-30T02:46:57;13.80;99.90
27534;DHT22;14973;51.460;7.008;2023-08-30T02:49:22;13.80;99.90
27534;DHT22;14973;51.460;7.008;2023-08-30T02:51:48;13.80;99.90
27534;DHT22;14973;51.460;7.008;2023-08-30T02:54:13;13.80;99.90
27534;DHT22;14973;51.460;7.008;2023-08-30T02:56:40;13.80;99.90
27534;DHT22;14973;51.460;7.008;2023-08-30T02:59:06;13.80;99.90
27534;DHT22;14973;51.460;7.008;2023-08-30T03:01:32;13.80;99.90
27534;DHT22;14973;51.460;7.008;2023-08-30T03:03:57;13.80;99.90
27534;DHT22;14973;51.460;7.008;2023-08-30T03:06:23;13.80;99.90
27534;DHT22;14973;51.460;7.008;2023-08-30T03:08:48;13.80;99.90
27534;DHT22;14973;51.460;7.008;2023-08-30T03:11:14;13.80;99.90
27534;DHT22;14973;51.460;7.008;2023-08-30T03:13:40;13.80;99.90
27534;DHT22;14973;51.460;7.008;2023-08-30T03:16:14;13.70;99.90
27534;DHT22;14973;51.460;7.008;2023-08-30T03:18:41;13.70;99.90
27534;DHT22;14973;51.460;7.008;2023-08-30T03:21:07;13.60;99.90
27534;DHT22;14973;51.460;7.008;2023-08-30T03:23:33;13.60;99.90
27534;DHT22;14973;51.460;7.008;2023-08-30T03:26:16;13.50;99.90
27534;DHT22;14973;51.460;7.008;2023-08-30T03:28:43;13.50;99.90
27534;DHT22;14973;51.460;7.008;2023-08-30T03:31:16;13.50;99.90
27534;DHT22;14973;51.460;7.008;2023-08-30T03:33:42;13.50;99.90
27534;DHT22;14973;51.460;7.008;2023-08-30T03:36:11;13.50;99.90
27534;DHT22;14973;51.460;7.008;2023-08-30T03:38:37;13.50;99.90
27534;DHT22;14973;51.460;7.008;2023-08-30T03:41:03;13.40;99.90
27534;DHT22;14973;51.460;7.008;2023-08-30T03:43:30;13.50;99.90
27534;DHT22;14973;51.460;7.008;2023-08-30T03:45:55;13.50;99.90
27534;DHT22;14973;51.460;7.008;2023-08-30T03:48:21;13.50;99.90
27534;DHT22;14973;51.460;7.008;2023-08-30T03:50:47;13.50;99.90
27534;DHT22;14973;51.460;7.008;2023-08-30T03:53:12;13.50;99.90
27534;DHT22;14973;51.460;7.008;2023-08-30T03:55:38;13.50;99.90
27534;DHT22;14973;51.460;7.008;2023-08-30T03:58:03;13.40;99.90
27534;DHT22;14973;51.460;7.008;2023-08-30T04:00:29;13.40;99.90
27534;DHT22;14973;51.460;7.008;2023-08-30T04:02:54;13.40;99.90
27534;DHT22;14973;51.460;7.008;2023-08-30T04:05:20;13.50;99.90
27534;DHT22;14973;51.460;7.008;2023-08-30T04:07:46;13.50;99.90
27534;DHT22;14973;51.460;7.008;2023-08-30T04:10:11;13.50;99.90
27534;DHT22;14973;51.460;7.008;2023-08-30T04:12:37;13.40;99.90
27534;DHT22;14973;51.460;7.008;2023-08-30T04:15:02;13.40;99.90
27534;DHT22;14973;51.460;7.008;2023-08-30T04:17:28;13.50;99.90
27534;DHT22;14973;51.460;7.008;2023-08-30T04:19:54;13.60;99.90
27534;DHT22;14973;51.460;7.008;2023-08-30T04:22:20;13.50;99.90
27534;DHT22;14973;51.460;7.008;2023-08-30T04:24:46;13.50;99.90
27534;DHT22;14973;51.460;7.008;2023-08-30T04:27:12;13.50;99.90
27534;DHT22;14973;51.460;7.008;2023-08-30T04:29:38;13.60;99.90
27534;DHT22;14973;51.460;7.008;2023-08-30T04:32:04;13.60;99.90
27534;DHT22;14973;51.460;7.008;2023-08-30T04:34:30;13.50;99.90
27534;DHT22;14973;51.460;7.008;2023-08-30T04:36:56;13.50;99.90
27534;DHT22;14973;51.460;7.008;2023-08-30T04:39:21;13.60;99.90
27534;DHT22;14973;51.460;7.008;2023-08-30T04:41:47;13.60;99.90
27534;DHT22;14973;51.460;7.008;2023-08-30T04:44:12;13.60;99.90
27534;DHT22;14973;51.460;7.008;2023-08-30T04:46:38;13.60;99.90
27534;DHT22;14973;51.460;7.008;2023-08-30T04:49:04;13.50;99.90
27534;DHT22;14973;51.460;7.008;2023-08-30T04:51:30;13.50;99.90
27534;DHT22;14973;51.460;7.008;2023-08-30T04:53:56;13.70;99.90
27534;DHT22;14973;51.460;7.008;2023-08-30T04:56:21;13.80;99.90
27534;DHT22;14973;51.460;7.008;2023-08-30T04:58:47;13.90;99.90
27534;DHT22;14973;51.460;7.008;2023-08-30T05:01:12;13.90;99.90
27534;DHT22;14973;51.460;7.008;2023-08-30T05:03:39;14.00;99.90
27534;DHT22;14973;51.460;7.008;2023-08-30T05:06:05;14.10;99.90
27534;DHT22;14973;51.460;7.008;2023-08-30T05:08:31;14.20;99.90
27534;DHT22;14973;51.460;7.008;2023-08-30T05:10:56;14.20;99.90
27534;DHT22;14973;51.460;7.008;2023-08-30T05:13:22;14.30;99.90
27534;DHT22;14973;51.460;7.008;2023-08-30T05:15:47;14.30;99.90
27534;DHT22;14973;51.460;7.008;2023-08-30T05:18:13;14.40;99.90
27534;DHT22;14973;51.460;7.008;2023-08-30T05:20:38;14.50;99.90
27534;DHT22;14973;51.460;7.008;2023-08-30T05:23:04;14.50;99.90
27534;DHT22;14973;51.460;7.008;2023-08-30T05:25:29;14.50;99.90
27534;DHT22;14973;51.460;7.008;2023-08-30T05:27:55;14.60;99.90
27534;DHT22;14973;51.460;7.008;2023-08-30T05:30:20;14.60;99.90
27534;DHT22;14973;51.460;7.008;2023-08-30T05:32:46;14.60;99.90
27534;DHT22;14973;51.460;7.008;2023-08-30T05:35:11;14.70;99.90
27534;DHT22;14973;51.460;7.008;2023-08-30T05:37:37;14.70;99.90
27534;DHT22;14973;51.460;7.008;2023-08-30T05:40:03;14.70;99.90
27534;DHT22;14973;51.460;7.008;2023-08-30T05:42:29;14.80;99.90
27534;DHT22;14973;51.460;7.008;2023-08-30T05:44:54;14.80;99.90
27534;DHT22;14973;51.460;7.008;2023-08-30T05:47:21;14.80;99.90
27534;DHT22;14973;51.460;7.008;2023-08-30T05:49:46;14.90;99.90
27534;DHT22;14973;51.460;7.008;2023-08-30T05:52:12;14.90;99.90
27534;DHT22;14973;51.460;7.008;2023-08-30T05:54:38;15.00;99.90
27534;DHT22;14973;51.460;7.008;2023-08-30T05:57:03;15.10;99.90
27534;DHT22;14973;51.460;7.008;2023-08-30T05:59:29;15.20;99.90
27534;DHT22;14973;51.460;7.008;2023-08-30T06:01:54;15.30;99.90
27534;DHT22;14973;51.460;7.008;2023-08-30T06:04:20;15.50;99.90
27534;DHT22;14973;51.460;7.008;2023-08-30T07:36:09;27.40;1.00
27534;DHT22;14973;51.460;7.008;2023-08-30T07:38:36;27.30;99.90
27534;DHT22;14973;51.460;7.008;2023-08-30T07:41:02;27.80;99.90
27534;DHT22;14973;51.460;7.008;2023-08-30T07:43:28;28.70;99.90
27534;DHT22;14973;51.460;7.008;2023-08-30T07:45:53;29.10;99.90
27534;DHT22;14973;51.460;7.008;2023-08-30T07:48:19;29.00;99.90
27534;DHT22;14973;51.460;7.008;2023-08-30T07:50:44;29.10;99.90
27534;DHT22;14973;51.460;7.008;2023-08-30T07:53:10;29.40;99.90
27534;DHT22;14973;51.460;7.008;2023-08-30T07:55:36;29.70;99.90
27534;DHT22;14973;51.460;7.008;2023-08-30T07:58:02;30.10;99.90
27534;DHT22;14973;51.460;7.008;2023-08-30T08:00:31;29.90;99.90
27534;DHT22;14973;51.460;7.008;2023-08-30T08:52:51;22.90;99.90
27534;DHT22;14973;51.460;7.008;2023-08-30T08:55:18;22.70;99.90
27534;DHT22;14973;51.460;7.008;2023-08-30T08:57:44;22.70;99.90
27534;DHT22;14973;51.460;7.008;2023-08-30T09:00:11;22.70;99.90
27534;DHT22;14973;51.460;7.008;2023-08-30T09:02:36;22.80;99.90
27534;DHT22;14973;51.460;7.008;2023-08-30T09:05:04;22.90;99.90
27534;DHT22;14973;51.460;7.008;2023-08-30T09:07:31;22.70;99.90
27534;DHT22;14973;51.460;7.008;2023-08-30T09:09:57;22.90;99.90
27534;DHT22;14973;51.460;7.008;2023-08-30T09:12:23;23.20;99.90
27534;DHT22;14973;51.460;7.008;2023-08-30T09:14:55;23.20;99.90
27534;DHT22;14973;51.460;7.008;2023-08-30T09:17:21;23.10;99.90
27534;DHT22;14973;51.460;7.008;2023-08-30T09:19:47;23.10;99.90
27534;DHT22;14973;51.460;7.008;2023-08-30T09:22:13;22.80;99.90
27534;DHT22;14973;51.460;7.008;2023-08-30T09:24:39;22.60;99.90
27534;DHT22;14973;51.460;7.008;2023-08-30T09:27:05;22.50;99.90
27534;DHT22;14973;51.460;7.008;2023-08-30T09:29:31;22.20;99.90
27534;DHT22;14973;51.460;7.008;2023-08-30T09:32:01;21.70;99.90
27534;DHT22;14973;51.460;7.008;2023-08-30T09:34:26;21.40;1.00
27534;DHT22;14973;51.460;7.008;2023-08-30T09:36:53;21.10;1.00
27534;DHT22;14973;51.460;7.008;2023-08-30T09:39:19;21.00;1.00
27534;DHT22;14973;51.460;7.008;2023-08-30T09:41:49;20.70;1.00
27534;DHT22;14973;51.460;7.008;2023-08-30T09:44:17;20.60;1.00
27534;DHT22;14973;51.460;7.008;2023-08-30T09:46:50;20.20;99.90
27534;DHT22;14973;51.460;7.008;2023-08-30T09:49:22;20.10;99.90
27534;DHT22;14973;51.460;7.008;2023-08-30T09:51:48;19.80;1.00
27534;DHT22;14973;51.460;7.008;2023-08-30T09:54:22;19.80;99.90
27534;DHT22;14973;51.460;7.008;2023-08-30T09:56:48;19.90;1.00
27534;DHT22;14973;51.460;7.008;2023-08-30T09:59:18;19.90;99.90
27534;DHT22;14973;51.460;7.008;2023-08-30T10:01:46;19.50;1.00
27534;DHT22;14973;51.460;7.008;2023-08-30T10:04:15;19.30;99.90
27534;DHT22;14973;51.460;7.008;2023-08-30T10:06:40;19.00;1.00
27534;DHT22;14973;51.460;7.008;2023-08-30T10:09:08;18.70;1.00
27534;DHT22;14973;51.460;7.008;2023-08-30T10:11:36;18.30;1.00
27534;DHT22;14973;51.460;7.008;2023-08-30T10:14:06;18.00;1.00
27534;DHT22;14973;51.460;7.008;2023-08-30T10:16:40;17.90;1.00
27534;DHT22;14973;51.460;7.008;2023-08-30T10:19:30;17.80;21.20
27534;DHT22;14973;51.460;7.008;2023-08-30T10:22:02;17.70;23.80
27534;DHT22;14973;51.460;7.008;2023-08-30T10:24:39;17.60;39.20
27534;DHT22;14973;51.460;7.008;2023-08-30T10:27:08;17.50;41.90
27534;DHT22;14973;51.460;7.008;2023-08-30T10:29:35;17.60;65.70
27534;DHT22;14973;51.460;7.008;2023-08-30T10:32:07;17.80;66.70
27534;DHT22;14973;51.460;7.008;2023-08-30T10:34:33;17.80;54.70
27534;DHT22;14973;51.460;7.008;2023-08-30T10:37:00;17.70;36.50
27534;DHT22;14973;51.460;7.008;2023-08-30T10:39:40;17.70;37.70
27534;DHT22;14973;51.460;7.008;2023-08-30T10:42:10;17.60;55.30
27534;DHT22;14973;51.460;7.008;2023-08-30T10:44:50;17.50;62.50
27534;DHT22;14973;51.460;7.008;2023-08-30T10:47:20;17.50;83.90
27534;DHT22;14973;51.460;7.008;2023-08-30T10:49:49;17.30;93.90
27534;DHT22;14973;51.460;7.008;2023-08-30T10:52:14;17.30;99.50
27534;DHT22;14973;51.460;7.008;2023-08-30T10:54:40;17.50;94.70
27534;DHT22;14973;51.460;7.008;2023-08-30T10:57:13;17.50;99.90
27534;DHT22;14973;51.460;7.008;2023-08-30T10:59:39;17.50;99.90
27534;DHT22;14973;51.460;7.008;2023-08-30T11:02:06;17.50;94.60
27534;DHT22;14973;51.460;7.008;2023-08-30T11:04:32;17.20;99.90
27534;DHT22;14973;51.460;7.008;2023-08-30T11:06:58;17.00;99.90
27534;DHT22;14973;51.460;7.008;2023-08-30T11:09:24;16.90;99.90
27534;DHT22;14973;51.460;7.008;2023-08-30T11:11:51;16.80;99.90
27534;DHT22;14973;51.460;7.008;2023-08-30T11:14:18;17.10;99.90
27534;DHT22;14973;51.460;7.008;2023-08-30T11:16:44;17.10;99.90
27534;DHT22;14973;51.460;7.008;2023-08-30T11:19:11;17.10;99.90
27534;DHT22;14973;51.460;7.008;2023-08-30T11:21:38;17.00;99.90
27534;DHT22;14973;51.460;7.008;2023-08-30T11:24:05;16.90;99.90
27534;DHT22;14973;51.460;7.008;2023-08-30T11:26:31;16.90;99.90
27534;DHT22;14973;51.460;7.008;2023-08-30T11:28:57;16.90;99.90
27534;DHT22;14973;51.460;7.008;2023-08-30T11:31:24;16.80;99.90
27534;DHT22;14973;51.460;7.008;2023-08-30T11:33:53;16.60;99.90
27534;DHT22;14973;51.460;7.008;2023-08-30T11:36:22;16.40;99.90
27534;DHT22;14973;51.460;7.008;2023-08-30T11:38:49;16.30;99.90
27534;DHT22;14973;51.460;7.008;2023-08-30T11:41:16;16.10;99.90
27534;DHT22;14973;51.460;7.008;2023-08-30T11:43:41;16.20;99.90
27534;DHT22;14973;51.460;7.008;2023-08-30T11:46:08;16.30;99.90
27534;DHT22;14973;51.460;7.008;2023-08-30T11:48:34;16.30;99.90
27534;DHT22;14973;51.460;7.008;2023-08-30T11:51:00;16.40;99.90
27534;DHT22;14973;51.460;7.008;2023-08-30T11:53:26;16.50;99.90
27534;DHT22;14973;51.460;7.008;2023-08-30T11:55:53;16.60;99.90
27534;DHT22;14973;51.460;7.008;2023-08-30T11:58:19;16.50;99.90
27534;DHT22;14973;51.460;7.008;2023-08-30T12:00:45;16.30;99.90
27534;DHT22;14973;51.460;7.008;2023-08-30T12:03:14;16.20;99.90
27534;DHT22;14973;51.460;7.008;2023-08-30T12:05:50;16.20;99.90
27534;DHT22;14973;51.460;7.008;2023-08-30T12:08:27;16.10;99.90
27534;DHT22;14973;51.460;7.008;2023-08-30T12:10:53;16.10;99.90
27534;DHT22;14973;51.460;7.008;2023-08-30T12:13:30;16.20;99.90
27534;DHT22;14973;51.460;7.008;2023-08-30T12:15:57;16.50;99.90
27534;DHT22;14973;51.460;7.008;2023-08-30T12:18:24;16.60;99.90
27534;DHT22;14973;51.460;7.008;2023-08-30T12:20:58;16.90;99.90
27534;DHT22;14973;51.460;7.008;2023-08-30T12:23:26;17.10;99.90
27534;DHT22;14973;51.460;7.008;2023-08-30T12:26:03;17.10;99.90
27534;DHT22;14973;51.460;7.008;2023-08-30T12:28:33;17.30;99.90
27534;DHT22;14973;51.460;7.008;2023-08-30T12:30:59;17.40;91.00
27534;DHT22;14973;51.460;7.008;2023-08-30T12:33:25;17.50;60.80
27534;DHT22;14973;51.460;7.008;2023-08-30T12:35:55;17.50;53.70
27534;DHT22;14973;51.460;7.008;2023-08-30T12:38:21;17.60;57.20
27534;DHT22;14973;51.460;7.008;2023-08-30T12:40:48;17.50;43.60
27534;DHT22;14973;51.460;7.008;2023-08-30T12:43:15;17.60;45.20
27534;DHT22;14973;51.460;7.008;2023-08-30T12:45:41;17.70;31.90
27534;DHT22;14973;51.460;7.008;2023-08-30T12:48:11;17.70;28.90
27534;DHT22;14973;51.460;7.008;2023-08-30T12:50:37;17.60;59.20
27534;DHT22;14973;51.460;7.008;2023-08-30T12:53:04;17.60;54.00
27534;DHT22;14973;51.460;7.008;2023-08-30T12:55:30;17.60;56.60
27534;DHT22;14973;51.460;7.008;2023-08-30T12:57:56;17.70;64.10
27534;DHT22;14973;51.460;7.008;2023-08-30T13:00:22;17.70;47.00
27534;DHT22;14973;51.460;7.008;2023-08-30T13:02:47;17.70;42.10
27534;DHT22;14973;51.460;7.008;2023-08-30T13:05:13;17.70;40.90
27534;DHT22;14973;51.460;7.008;2023-08-30T13:07:39;17.70;40.20
27534;DHT22;14973;51.460;7.008;2023-08-30T13:10:08;17.60;34.30
27534;DHT22;14973;51.460;7.008;2023-08-30T13:12:34;17.70;30.40
27534;DHT22;14973;51.460;7.008;2023-08-30T13:14:59;17.50;46.10
27534;DHT22;14973;51.460;7.008;2023-08-30T13:17:25;17.40;80.00
27534;DHT22;14973;51.460;7.008;2023-08-30T13:19:50;17.30;99.30
27534;DHT22;14973;51.460;7.008;2023-08-30T13:22:16;17.20;99.90
27534;DHT22;14973;51.460;7.008;2023-08-30T13:24:43;17.20;99.90
27534;DHT22;14973;51.460;7.008;2023-08-30T13:27:09;17.00;99.90
27534;DHT22;14973;51.460;7.008;2023-08-30T13:29:35;16.90;99.90
27534;DHT22;14973;51.460;7.008;2023-08-30T13:32:01;16.60;99.90
27534;DHT22;14973;51.460;7.008;2023-08-30T13:34:26;16.50;99.90
27534;DHT22;14973;51.460;7.008;2023-08-30T13:36:52;16.40;99.90
27534;DHT22;14973;51.460;7.008;2023-08-30T13:39:17;16.20;99.90
27534;DHT22;14973;51.460;7.008;2023-08-30T13:41:46;16.10;99.90
27534;DHT22;14973;51.460;7.008;2023-08-30T13:44:12;16.10;99.90
27534;DHT22;14973;51.460;7.008;2023-08-30T13:46:37;16.20;99.90
27534;DHT22;14973;51.460;7.008;2023-08-30T13:49:03;16.10;99.90
27534;DHT22;14973;51.460;7.008;2023-08-30T13:51:29;16.10;99.90
27534;DHT22;14973;51.460;7.008;2023-08-30T13:53:54;16.10;99.90
27534;DHT22;14973;51.460;7.008;2023-08-30T13:56:20;16.10;99.90
27534;DHT22;14973;51.460;7.008;2023-08-30T13:58:46;16.10;99.90
27534;DHT22;14973;51.460;7.008;2023-08-30T14:01:12;16.10;99.90
27534;DHT22;14973;51.460;7.008;2023-08-30T14:03:37;16.10;99.90
27534;DHT22;14973;51.460;7.008;2023-08-30T14:06:03;16.10;99.90
27534;DHT22;14973;51.460;7.008;2023-08-30T14:08:29;16.20;99.90
27534;DHT22;14973;51.460;7.008;2023-08-30T14:10:55;16.30;99.90
27534;DHT22;14973;51.460;7.008;2023-08-30T14:13:21;16.30;99.90
27534;DHT22;14973;51.460;7.008;2023-08-30T14:15:47;16.40;99.90
27534;DHT22;14973;51.460;7.008;2023-08-30T14:18:13;16.40;99.90
27534;DHT22;14973;51.460;7.008;2023-08-30T14:20:39;16.40;99.90
27534;DHT22;14973;51.460;7.008;2023-08-30T14:23:04;16.20;99.90
27534;DHT22;14973;51.460;7.008;2023-08-30T14:25:30;16.10;99.90
27534;DHT22;14973;51.460;7.008;2023-08-30T14:27:55;16.10;99.90
27534;DHT22;14973;51.460;7.008;2023-08-30T14:30:21;16.20;99.90
27534;DHT22;14973;51.460;7.008;2023-08-30T14:32:47;16.30;99.90
27534;DHT22;14973;51.460;7.008;2023-08-30T14:35:12;16.20;99.90
27534;DHT22;14973;51.460;7.008;2023-08-30T14:37:38;16.10;99.90
27534;DHT22;14973;51.460;7.008;2023-08-30T14:40:05;16.00;99.90
27534;DHT22;14973;51.460;7.008;2023-08-30T14:42:31;15.80;99.90
27534;DHT22;14973;51.460;7.008;2023-08-30T14:44:57;15.80;99.90
27534;DHT22;14973;51.460;7.008;2023-08-30T14:47:23;15.70;99.90
27534;DHT22;14973;51.460;7.008;2023-08-30T14:49:49;15.60;99.90
27534;DHT22;14973;51.460;7.008;2023-08-30T14:52:15;15.40;99.90
27534;DHT22;14973;51.460;7.008;2023-08-30T14:54:41;15.50;99.90
27534;DHT22;14973;51.460;7.008;2023-08-30T14:57:07;15.40;99.90
27534;DHT22;14973;51.460;7.008;2023-08-30T14:59:33;15.30;99.90
27534;DHT22;14973;51.460;7.008;2023-08-30T15:01:58;15.20;99.90
27534;DHT22;14973;51.460;7.008;2023-08-30T15:04:24;15.20;99.90
27534;DHT22;14973;51.460;7.008;2023-08-30T15:06:50;15.30;99.90
27534;DHT22;14973;51.460;7.008;2023-08-30T15:09:17;15.30;99.90
27534;DHT22;14973;51.460;7.008;2023-08-30T15:11:43;15.30;99.90
27534;DHT22;14973;51.460;7.008;2023-08-30T15:14:08;15.30;99.90
27534;DHT22;14973;51.460;7.008;2023-08-30T15:16:34;15.30;99.90
27534;DHT22;14973;51.460;7.008;2023-08-30T15:19:00;15.20;99.90
27534;DHT22;14973;51.460;7.008;2023-08-30T15:21:25;15.20;99.90
27534;DHT22;14973;51.460;7.008;2023-08-30T15:23:51;15.10;99.90
27534;DHT22;14973;51.460;7.008;2023-08-30T15:26:16;15.10;99.90
27534;DHT22;14973;51.460;7.008;2023-08-30T15:28:43;15.10;99.90
27534;DHT22;14973;51.460;7.008;2023-08-30T15:31:17;15.10;99.90
27534;DHT22;14973;51.460;7.008;2023-08-30T15:33:44;15.10;99.90
27534;DHT22;14973;51.460;7.008;2023-08-30T15:36:10;15.10;99.90
27534;DHT22;14973;51.460;7.008;2023-08-30T15:38:36;15.40;99.90
27534;DHT22;14973;51.460;7.008;2023-08-30T15:41:06;15.60;99.90
27534;DHT22;14973;51.460;7.008;2023-08-30T15:43:33;15.70;99.90
27534;DHT22;14973;51.460;7.008;2023-08-30T15:46:08;16.00;99.90
27534;DHT22;14973;51.460;7.008;2023-08-30T15:48:34;16.20;99.90
27534;DHT22;14973;51.460;7.008;2023-08-30T15:51:00;16.40;99.90
27534;DHT22;14973;51.460;7.008;2023-08-30T15:53:26;16.50;99.90
27534;DHT22;14973;51.460;7.008;2023-08-30T15:55:52;16.80;99.90
27534;DHT22;14973;51.460;7.008;2023-08-30T15:58:18;16.90;99.90
27534;DHT22;14973;51.460;7.008;2023-08-30T16:00:43;16.90;99.90
27534;DHT22;14973;51.460;7.008;2023-08-30T16:03:10;16.80;99.90
27534;DHT22;14973;51.460;7.008;2023-08-30T16:05:37;16.90;99.90
27534;DHT22;14973;51.460;7.008;2023-08-30T16:08:03;16.80;99.90
27534;DHT22;14973;51.460;7.008;2023-08-30T16:10:28;16.80;99.90
27534;DHT22;14973;51.460;7.008;2023-08-30T16:12:54;16.80;99.90
27534;DHT22;14973;51.460;7.008;2023-08-30T16:15:20;16.80;99.90
27534;DHT22;14973;51.460;7.008;2023-08-30T16:17:46;16.90;99.90
27534;DHT22;14973;51.460;7.008;2023-08-30T16:20:12;16.90;99.90
27534;DHT22;14973;51.460;7.008;2023-08-30T16:22:37;16.90;99.90
27534;DHT22;14973;51.460;7.008;2023-08-30T16:25:04;16.90;99.90
27534;DHT22;14973;51.460;7.008;2023-08-30T16:27:30;16.90;99.90
27534;DHT22;14973;51.460;7.008;2023-08-30T16:29:56;16.90;99.90
27534;DHT22;14973;51.460;7.008;2023-08-30T16:32:21;17.00;99.90
27534;DHT22;14973;51.460;7.008;2023-08-30T16:34:47;17.10;99.90
27534;DHT22;14973;51.460;7.008;2023-08-30T16:37:15;17.20;99.90
27534;DHT22;14973;51.460;7.008;2023-08-30T16:39:40;17.30;99.90
27534;DHT22;14973;51.460;7.008;2023-08-30T16:42:06;17.40;99.90
27534;DHT22;14973;51.460;7.008;2023-08-30T16:44:32;17.50;99.90
27534;DHT22;14973;51.460;7.008;2023-08-30T16:46:57;17.50;99.90
27534;DHT22;14973;51.460;7.008;2023-08-30T16:49:23;17.50;99.90
27534;DHT22;14973;51.460;7.008;2023-08-30T16:51:49;17.40;99.90
27534;DHT22;14973;51.460;7.008;2023-08-30T16:54:14;17.30;99.90
27534;DHT22;14973;51.460;7.008;2023-08-30T16:56:40;17.30;99.90
27534;DHT22;14973;51.460;7.008;2023-08-30T16:59:05;17.20;99.90
27534;DHT22;14973;51.460;7.008;2023-08-30T17:01:31;17.20;99.90
27534;DHT22;14973;51.460;7.008;2023-08-30T17:03:56;17.20;99.90
27534;DHT22;14973;51.460;7.008;2023-08-30T17:06:22;17.10;99.90
27534;DHT22;14973;51.460;7.008;2023-08-30T17:08:48;17.20;99.90
27534;DHT22;14973;51.460;7.008;2023-08-30T17:11:13;17.00;99.90
27534;DHT22;14973;51.460;7.008;2023-08-30T17:13:39;16.90;99.90
27534;DHT22;14973;51.460;7.008;2023-08-30T17:16:05;16.80;99.90
27534;DHT22;14973;51.460;7.008;2023-08-30T17:18:34;16.70;99.90
27534;DHT22;14973;51.460;7.008;2023-08-30T17:21:03;16.60;99.90
27534;DHT22;14973;51.460;7.008;2023-08-30T17:23:29;16.40;99.90
27534;DHT22;14973;51.460;7.008;2023-08-30T17:25:54;16.50;99.90
27534;DHT22;14973;51.460;7.008;2023-08-30T17:28:20;16.40;99.90
27534;DHT22;14973;51.460;7.008;2023-08-30T17:30:46;16.30;99.90
27534;DHT22;14973;51.460;7.008;2023-08-30T17:33:11;16.30;99.90
27534;DHT22;14973;51.460;7.008;2023-08-30T17:35:37;16.30;99.90
27534;DHT22;14973;51.460;7.008;2023-08-30T17:38:03;16.20;99.90
27534;DHT22;14973;51.460;7.008;2023-08-30T17:40:33;16.40;99.90
27534;DHT22;14973;51.460;7.008;2023-08-30T17:43:00;16.40;99.90
27534;DHT22;14973;51.460;7.008;2023-08-30T17:45:30;16.50;99.90
27534;DHT22;14973;51.460;7.008;2023-08-30T17:47:57;16.40;99.90
27534;DHT22;14973;51.460;7.008;2023-08-30T17:50:22;16.40;99.90